Time;durP1;ratioP1;P1;durP2;ratioP2;P2;SDS_P1;SDS_P2;PMS_P1;PMS_P2;Temp;Humidity;BMP_temperature;BMP_pressure;BME280_temperature;BME280_humidity;BME280_pressure;Samples;Min_cycle;Max_cycle;Signal;HPM_P1;HPM_P2
2021/06/28 00:00:43;;;;;;;0.40;0.30;;;15.40;99.90;;;;;;5033859;28;20021;-75
2021/06/28 00:03:09;;;;;;;1.83;0.20;;;15.30;99.90;;;;;;5034465;28;20094;-75
2021/06/28 00:05:35;;;;;;;0.28;0.10;;;15.20;99.90;;;;;;5040104;28;20052;-75
2021/06/28 00:08:01;;;;;;;0.10;0.10;;;15.10;99.90;;;;;;5042647;28;20030;-75
2021/06/28 00:10:31;;;;;;;1.08;0.20;;;15.20;99.90;;;;;;5031475;28;20524;-75
2021/06/28 00:12:59;;;;;;;0.20;0.20;;;15.20;99.90;;;;;;5032262;28;20422;-75
2021/06/28 00:15:28;;;;;;;0.15;0.15;;;15.20;99.90;;;;;;5032260;28;20068;-75
2021/06/28 00:17:55;;;;;;;0.20;0.20;;;15.20;99.90;;;;;;5032536;28;20036;-75
2021/06/28 00:20:22;;;;;;;0.45;0.20;;;15.20;99.90;;;;;;5032442;28;20054;-75
2021/06/28 00:22:48;;;;;;;0.10;0.10;;;15.40;99.90;;;;;;5033359;28;20029;-75
2021/06/28 00:25:19;;;;;;;0.73;0.10;;;15.50;99.90;;;;;;5032299;28;20052;-75
2021/06/28 00:27:45;;;;;;;1.60;0.17;;;15.50;99.90;;;;;;5031136;28;20489;-75
2021/06/28 00:30:17;;;;;;;0.85;0.20;;;15.50;99.90;;;;;;5042710;28;20021;-75
2021/06/28 00:32:44;;;;;;;2.60;0.10;;;15.60;99.90;;;;;;5052384;28;20389;-75
2021/06/28 00:35:10;;;;;;;0.40;0.30;;;15.40;99.90;;;;;;5052294;28;20096;-75
2021/06/28 00:37:37;;;;;;;1.45;0.22;;;15.40;99.90;;;;;;5043340;28;20497;-75
2021/06/28 00:40:08;;;;;;;1.10;0.20;;;15.30;99.90;;;;;;5032356;28;20037;-75
2021/06/28 00:42:35;;;;;;;0.63;0.20;;;15.20;99.90;;;;;;5032216;28;20035;-75
2021/06/28 00:45:13;;;;;;;0.43;0.10;;;15.10;99.90;;;;;;5031994;28;20033;-75
2021/06/28 00:47:39;;;;;;;0.30;0.17;;;15.00;99.90;;;;;;5033321;28;20034;-75
2021/06/28 00:50:05;;;;;;;0.10;0.10;;;15.00;99.90;;;;;;5036220;28;20022;-75
2021/06/28 00:52:31;;;;;;;0.40;0.20;;;15.00;99.90;;;;;;5037029;28;20087;-75
2021/06/28 00:54:56;;;;;;;1.20;0.22;;;15.00;99.90;;;;;;5054939;28;20032;-75
2021/06/28 00:57:22;;;;;;;0.20;0.20;;;14.90;99.90;;;;;;5056231;28;20037;-75
2021/06/28 00:59:50;;;;;;;0.20;0.20;;;15.00;99.90;;;;;;5045869;28;20501;-75
2021/06/28 01:02:15;;;;;;;0.93;0.20;;;15.00;99.90;;;;;;5034602;28;20033;-75
2021/06/28 01:04:41;;;;;;;1.02;0.20;;;15.00;99.90;;;;;;5035876;28;20507;-75
2021/06/28 01:07:07;;;;;;;0.20;0.20;;;14.90;99.90;;;;;;5036524;28;20018;-75
2021/06/28 01:09:33;;;;;;;0.10;0.10;;;14.90;99.90;;;;;;5038197;28;20061;-75
2021/06/28 01:11:59;;;;;;;1.05;0.20;;;14.90;99.90;;;;;;5035449;28;20057;-75
2021/06/28 01:14:25;;;;;;;0.15;0.15;;;14.80;99.90;;;;;;5035970;28;20049;-75
2021/06/28 01:16:52;;;;;;;0.17;0.17;;;14.70;99.90;;;;;;5035672;28;20033;-75
2021/06/28 01:19:22;;;;;;;0.20;0.20;;;14.70;99.90;;;;;;5035673;28;20042;-75
2021/06/28 01:21:50;;;;;;;0.70;0.30;;;14.60;99.90;;;;;;5043772;28;20515;-75
2021/06/28 01:24:16;;;;;;;0.35;0.20;;;14.40;99.90;;;;;;5039443;28;20100;-75
2021/06/28 01:26:42;;;;;;;0.13;0.13;;;14.20;99.90;;;;;;5047577;28;20124;-75
2021/06/28 01:29:08;;;;;;;0.20;0.20;;;14.20;99.90;;;;;;5055684;28;20027;-75
2021/06/28 01:31:33;;;;;;;0.20;0.20;;;14.10;99.90;;;;;;5054726;28;20029;-75
2021/06/28 01:33:59;;;;;;;0.20;0.20;;;14.00;99.90;;;;;;5055294;28;20022;-75
2021/06/28 01:36:25;;;;;;;0.20;0.20;;;14.00;99.90;;;;;;5055374;28;20053;-75
2021/06/28 01:38:51;;;;;;;0.30;0.30;;;13.90;99.90;;;;;;5037781;28;20417;-75
2021/06/28 01:41:17;;;;;;;2.45;0.22;;;14.10;99.90;;;;;;5034818;28;20041;-75
2021/06/28 01:43:43;;;;;;;0.10;0.10;;;14.10;99.90;;;;;;5035333;28;20034;-75
2021/06/28 01:46:08;;;;;;;0.20;0.20;;;14.00;99.90;;;;;;5035207;28;20056;-75
2021/06/28 01:48:37;;;;;;;0.10;0.10;;;14.00;99.90;;;;;;5035361;28;20017;-74
2021/06/28 01:51:04;;;;;;;0.35;0.20;;;14.00;99.90;;;;;;5036103;28;20032;-75
2021/06/28 01:53:30;;;;;;;0.20;0.20;;;13.90;99.90;;;;;;5055008;28;20485;-75
2021/06/28 01:55:56;;;;;;;0.30;0.30;;;13.90;99.90;;;;;;5054653;28;20040;-75
2021/06/28 01:58:22;;;;;;;0.10;0.10;;;14.10;99.90;;;;;;5055013;28;20021;-75
2021/06/28 02:00:53;;;;;;;0.20;0.20;;;14.00;99.90;;;;;;5054121;28;20032;-75
2021/06/28 02:03:21;;;;;;;0.20;0.20;;;13.90;99.90;;;;;;5054748;28;20486;-75
2021/06/28 02:05:53;;;;;;;0.20;0.20;;;14.00;99.90;;;;;;5047269;28;20107;-74
2021/06/28 02:08:20;;;;;;;0.10;0.10;;;13.90;99.90;;;;;;5034221;28;20563;-75
2021/06/28 02:10:51;;;;;;;0.10;0.10;;;14.10;99.90;;;;;;5034473;28;20478;-75
2021/06/28 02:13:23;;;;;;;0.20;0.20;;;14.10;99.90;;;;;;5043281;28;20412;-75
2021/06/28 02:15:49;;;;;;;0.17;0.17;;;14.20;99.90;;;;;;5054761;28;20116;-75
2021/06/28 02:18:15;;;;;;;0.10;0.10;;;14.20;99.90;;;;;;5053140;28;20037;-75
2021/06/28 02:20:41;;;;;;;1.08;0.20;;;14.20;99.90;;;;;;5054563;28;20071;-74
2021/06/28 02:23:22;;;;;;;1.10;0.20;;;14.30;99.90;;;;;;5051319;28;20052;-75
2021/06/28 02:25:50;;;;;;;1.23;0.20;;;14.40;99.90;;;;;;5053887;28;20029;-75
2021/06/28 02:28:16;;;;;;;0.57;0.10;;;14.40;99.90;;;;;;5054467;28;20025;-75
2021/06/28 02:30:42;;;;;;;1.17;0.20;;;14.30;99.90;;;;;;5054275;28;20028;-75
2021/06/28 02:33:08;;;;;;;0.80;0.20;;;14.40;99.90;;;;;;5054335;28;20021;-75
2021/06/28 02:35:33;;;;;;;0.20;0.20;;;14.30;99.90;;;;;;5053022;28;20515;-75
2021/06/28 02:37:59;;;;;;;0.20;0.20;;;14.30;99.90;;;;;;5052388;28;20025;-75
2021/06/28 02:40:25;;;;;;;1.17;0.30;;;14.20;99.90;;;;;;5053012;28;20080;-74
2021/06/28 02:42:51;;;;;;;0.20;0.20;;;14.30;99.90;;;;;;5050200;28;20029;-75
2021/06/28 02:45:17;;;;;;;0.35;0.20;;;14.30;99.90;;;;;;5033958;28;20044;-75
2021/06/28 02:47:43;;;;;;;0.55;0.30;;;14.30;99.90;;;;;;5034278;28;20064;-75
2021/06/28 02:50:11;;;;;;;3.10;0.30;;;14.30;99.90;;;;;;5034009;28;20520;-75
2021/06/28 02:52:37;;;;;;;2.85;0.20;;;14.30;99.90;;;;;;5034266;28;20078;-75
2021/06/28 02:55:05;;;;;;;0.65;0.22;;;14.30;99.90;;;;;;5043433;28;20025;-75
2021/06/28 02:57:31;;;;;;;0.77;0.25;;;14.20;99.90;;;;;;5033926;28;20508;-75
2021/06/28 02:59:58;;;;;;;0.40;0.25;;;14.20;99.90;;;;;;5033690;28;20032;-75
2021/06/28 03:02:23;;;;;;;0.17;0.17;;;14.20;99.90;;;;;;5031670;28;20253;-75
2021/06/28 03:04:49;;;;;;;0.57;0.30;;;14.20;99.90;;;;;;5033786;28;20045;-75
2021/06/28 03:07:15;;;;;;;2.20;0.73;;;14.20;99.90;;;;;;5033058;28;20069;-75
2021/06/28 03:09:41;;;;;;;0.20;0.20;;;14.30;99.90;;;;;;5038203;28;20025;-75
2021/06/28 03:12:07;;;;;;;0.20;0.20;;;14.20;99.90;;;;;;5032664;28;20018;-75
2021/06/28 03:14:33;;;;;;;0.10;0.10;;;14.20;99.90;;;;;;5033172;28;20394;-75
2021/06/28 03:16:59;;;;;;;0.20;0.20;;;14.10;99.90;;;;;;5052445;28;20033;-75
2021/06/28 03:19:25;;;;;;;0.15;0.15;;;14.20;99.90;;;;;;5053190;28;20049;-75
2021/06/28 03:21:51;;;;;;;1.05;0.20;;;14.20;99.90;;;;;;5051601;28;20025;-75
2021/06/28 03:24:17;;;;;;;0.20;0.13;;;14.30;99.90;;;;;;5052757;28;20063;-75
2021/06/28 03:26:43;;;;;;;0.20;0.20;;;14.20;99.90;;;;;;5053005;28;20028;-75
2021/06/28 03:29:08;;;;;;;0.50;0.20;;;14.30;99.90;;;;;;5049141;28;20026;-75
2021/06/28 03:31:34;;;;;;;1.75;0.20;;;14.30;99.90;;;;;;5033429;28;20025;-75
2021/06/28 03:34:00;;;;;;;0.20;0.15;;;14.20;99.90;;;;;;5039104;28;20032;-75
2021/06/28 03:36:26;;;;;;;0.30;0.30;;;14.20;99.90;;;;;;5052732;28;20047;-75
2021/06/28 03:38:53;;;;;;;0.30;0.30;;;14.20;99.90;;;;;;5040357;28;20025;-75
2021/06/28 03:41:20;;;;;;;1.90;0.28;;;14.10;99.90;;;;;;5037047;28;20112;-75
2021/06/28 03:43:46;;;;;;;0.50;0.30;;;14.30;99.90;;;;;;5046227;28;20151;-75
2021/06/28 03:46:11;;;;;;;4.13;0.90;;;14.40;99.90;;;;;;5040619;28;20115;-75
2021/06/28 03:48:37;;;;;;;0.85;0.35;;;14.50;99.90;;;;;;5052981;28;20096;-75
2021/06/28 03:51:03;;;;;;;6.47;0.40;;;14.50;99.90;;;;;;5052735;28;20079;-75
2021/06/28 03:53:29;;;;;;;1.80;0.43;;;14.50;99.90;;;;;;5052312;28;20044;-75
2021/06/28 03:55:55;;;;;;;0.50;0.30;;;14.60;99.90;;;;;;5043374;28;20068;-75
2021/06/28 03:58:20;;;;;;;2.60;0.40;;;14.60;99.90;;;;;;5032778;28;20482;-75
2021/06/28 04:00:47;;;;;;;1.42;0.22;;;14.60;99.90;;;;;;5039517;28;20381;-75
2021/06/28 04:03:14;;;;;;;0.30;0.20;;;14.60;99.90;;;;;;5044003;28;20091;-75
2021/06/28 04:05:41;;;;;;;2.13;0.20;;;14.60;99.90;;;;;;5032161;28;20116;-75
2021/06/28 04:08:06;;;;;;;4.07;0.70;;;14.50;99.90;;;;;;5041794;28;20032;-75
2021/06/28 04:10:33;;;;;;;1.20;1.13;;;14.50;99.90;;;;;;5044516;28;20026;-75
2021/06/28 04:12:59;;;;;;;3.10;1.40;;;14.50;99.90;;;;;;5032746;28;20072;-75
2021/06/28 04:15:25;;;;;;;1.50;1.40;;;14.60;99.90;;;;;;5032392;28;20481;-75
2021/06/28 04:17:54;;;;;;;1.50;1.40;;;14.70;99.90;;;;;;5032696;28;20393;-75
2021/06/28 04:20:23;;;;;;;3.25;1.15;;;14.70;99.90;;;;;;5032262;28;20045;-75
2021/06/28 04:22:49;;;;;;;2.45;1.33;;;14.60;99.90;;;;;;5032187;28;20096;-75
2021/06/28 04:25:19;;;;;;;1.75;1.23;;;14.50;99.90;;;;;;5032655;28;20029;-75
2021/06/28 04:27:45;;;;;;;1.43;1.17;;;14.50;99.90;;;;;;5051952;28;20025;-75
2021/06/28 04:30:12;;;;;;;4.20;1.30;;;14.50;99.90;;;;;;5050695;28;20035;-75
2021/06/28 04:32:39;;;;;;;1.40;1.10;;;14.60;99.90;;;;;;5036743;28;20033;-75
2021/06/28 04:35:07;;;;;;;1.50;1.40;;;14.70;99.90;;;;;;5032255;28;20061;-75
2021/06/28 04:37:34;;;;;;;1.33;1.15;;;14.60;99.90;;;;;;5032067;28;20033;-75
2021/06/28 04:39:59;;;;;;;1.65;1.55;;;14.70;99.90;;;;;;5048713;28;20029;-75
2021/06/28 04:42:25;;;;;;;3.15;0.95;;;14.80;99.90;;;;;;5039990;28;20474;-75
2021/06/28 04:44:51;;;;;;;1.95;1.70;;;14.80;99.90;;;;;;5032294;28;20501;-75
2021/06/28 04:47:17;;;;;;;1.65;1.55;;;14.80;99.90;;;;;;5032314;28;20072;-75
2021/06/28 04:49:42;;;;;;;2.03;1.80;;;14.90;99.90;;;;;;5031957;28;20033;-75
2021/06/28 04:52:08;;;;;;;2.20;1.48;;;14.80;99.90;;;;;;5032233;28;20025;-75
2021/06/28 04:54:34;;;;;;;1.73;1.63;;;14.80;99.90;;;;;;5031792;28;20034;-75
2021/06/28 04:57:01;;;;;;;2.03;1.80;;;14.80;99.90;;;;;;5032318;28;20017;-75
2021/06/28 04:59:26;;;;;;;6.65;1.60;;;14.90;99.90;;;;;;5032134;28;20049;-75
2021/06/28 05:01:52;;;;;;;0.90;0.90;;;14.90;99.90;;;;;;5047479;28;20114;-75
2021/06/28 05:04:18;;;;;;;1.75;0.40;;;14.90;99.90;;;;;;5051822;28;20060;-75
2021/06/28 05:06:44;;;;;;;1.23;0.50;;;14.90;99.90;;;;;;5050706;28;20035;-75
2021/06/28 05:09:09;;;;;;;2.88;0.60;;;14.90;99.90;;;;;;5042489;28;20120;-75
2021/06/28 05:11:37;;;;;;;1.75;1.05;;;15.00;99.90;;;;;;5032029;28;20027;-75
2021/06/28 05:14:03;;;;;;;0.38;0.38;;;14.90;99.90;;;;;;5032173;28;20079;-75
2021/06/28 05:16:29;;;;;;;0.70;0.50;;;14.90;99.90;;;;;;5035167;28;20555;-75
2021/06/28 05:18:55;;;;;;;0.47;0.47;;;14.90;99.90;;;;;;5045340;28;20049;-75
2021/06/28 05:21:20;;;;;;;0.93;0.47;;;15.00;99.90;;;;;;5047792;28;20025;-75
2021/06/28 05:23:46;;;;;;;0.65;0.65;;;14.90;99.90;;;;;;5041266;28;20112;-75
2021/06/28 05:26:12;;;;;;;2.05;0.60;;;15.00;99.90;;;;;;5040284;28;20025;-75
2021/06/28 05:28:37;;;;;;;0.73;0.73;;;14.90;99.90;;;;;;5048273;28;20109;-75
2021/06/28 05:31:03;;;;;;;1.10;0.70;;;14.90;99.90;;;;;;5031992;28;20025;-75
2021/06/28 05:33:30;;;;;;;1.45;0.50;;;15.00;99.90;;;;;;5032279;28;20061;-75
2021/06/28 05:35:55;;;;;;;3.47;0.55;;;15.00;99.90;;;;;;5036775;28;20055;-75
2021/06/28 05:38:21;;;;;;;1.08;0.70;;;15.00;99.90;;;;;;5043658;28;20034;-75
2021/06/28 05:40:47;;;;;;;0.50;0.50;;;15.00;99.90;;;;;;5039091;28;20037;-75
2021/06/28 05:43:12;;;;;;;0.70;0.68;;;15.20;99.90;;;;;;5040453;28;20025;-75
2021/06/28 05:45:38;;;;;;;3.33;0.80;;;15.30;99.90;;;;;;5034804;28;20037;-75
2021/06/28 05:48:05;;;;;;;0.40;0.40;;;15.40;99.90;;;;;;5035106;28;20394;-74
2021/06/28 05:50:31;;;;;;;0.93;0.43;;;15.50;99.90;;;;;;5047855;28;20026;-74
2021/06/28 05:52:58;;;;;;;2.15;0.55;;;15.50;99.90;;;;;;5042947;28;20018;-74
2021/06/28 05:55:24;;;;;;;0.93;0.45;;;15.40;99.90;;;;;;5049307;28;20028;-74
2021/06/28 05:57:50;;;;;;;1.05;0.70;;;15.50;99.90;;;;;;5044981;28;20029;-74
2021/06/28 06:00:19;;;;;;;0.30;0.30;;;15.50;99.90;;;;;;5053005;28;20024;-74
2021/06/28 06:02:45;;;;;;;1.45;0.60;;;15.60;99.90;;;;;;5051617;28;20057;-74
2021/06/28 06:05:12;;;;;;;1.15;0.60;;;15.80;99.90;;;;;;5035489;28;20107;-74
2021/06/28 06:07:38;;;;;;;0.50;0.50;;;15.80;99.90;;;;;;5053028;28;20128;-74
2021/06/28 06:10:07;;;;;;;2.38;0.52;;;15.80;99.90;;;;;;5057973;28;20025;-74
2021/06/28 06:12:32;;;;;;;0.60;0.35;;;15.90;99.90;;;;;;5037402;28;20030;-76
2021/06/28 06:14:58;;;;;;;2.40;0.40;;;16.20;99.90;;;;;;5046095;28;20081;-77
2021/06/28 06:17:24;;;;;;;1.75;0.68;;;16.10;99.90;;;;;;5051689;28;20033;-77
2021/06/28 06:19:50;;;;;;;4.57;3.33;;;16.20;99.90;;;;;;5053307;28;20090;-77
2021/06/28 06:22:15;;;;;;;0.80;0.50;;;16.40;99.90;;;;;;5054302;28;20029;-77
2021/06/28 06:24:41;;;;;;;0.60;0.60;;;16.50;99.90;;;;;;5042127;28;20025;-77
2021/06/28 06:27:07;;;;;;;0.60;0.60;;;16.50;99.90;;;;;;5050485;28;20063;-78
2021/06/28 06:29:34;;;;;;;0.32;0.32;;;16.50;99.90;;;;;;5043164;28;20029;-77
2021/06/28 06:32:00;;;;;;;0.73;0.50;;;16.40;99.90;;;;;;5048608;28;20025;-77
2021/06/28 06:34:26;;;;;;;5.15;0.50;;;16.60;99.90;;;;;;5051279;28;20033;-77
2021/06/28 06:36:53;;;;;;;0.70;0.70;;;16.80;99.90;;;;;;5060516;28;20082;-77
2021/06/28 06:39:19;;;;;;;0.70;0.70;;;16.60;99.90;;;;;;5058514;28;20122;-78
2021/06/28 06:41:45;;;;;;;0.90;0.80;;;16.60;99.90;;;;;;5051172;28;20451;-78
2021/06/28 06:44:12;;;;;;;3.00;0.98;;;16.70;99.90;;;;;;5051849;28;20025;-77
2021/06/28 06:46:37;;;;;;;1.08;0.80;;;16.70;99.90;;;;;;5048632;28;20025;-78
2021/06/28 06:49:04;;;;;;;1.23;0.80;;;16.80;99.90;;;;;;5059251;28;20024;-78
2021/06/28 06:51:31;;;;;;;1.25;0.88;;;17.10;99.90;;;;;;5058387;28;20095;-78
2021/06/28 06:53:57;;;;;;;1.45;0.68;;;17.20;99.90;;;;;;5055090;28;20021;-78
2021/06/28 06:56:23;;;;;;;0.45;0.45;;;17.20;99.90;;;;;;5052686;28;20031;-78
2021/06/28 06:58:48;;;;;;;0.60;0.60;;;17.10;99.90;;;;;;5040847;28;20029;-78
2021/06/28 07:01:16;;;;;;;1.25;0.40;;;17.20;99.90;;;;;;5049403;28;20091;-78
2021/06/28 07:03:46;;;;;;;0.50;0.50;;;17.30;99.90;;;;;;5051720;28;20104;-78
2021/06/28 07:06:12;;;;;;;1.95;1.08;;;17.20;99.90;;;;;;5049720;28;20035;-78
2021/06/28 07:08:39;;;;;;;3.78;1.13;;;16.90;99.90;;;;;;5055961;28;20046;-78
2021/06/28 07:11:10;;;;;;;1.30;1.20;;;16.90;99.90;;;;;;5058654;28;20055;-78
2021/06/28 07:13:37;;;;;;;1.95;1.30;;;16.80;99.90;;;;;;5047848;28;20388;-77
2021/06/28 07:16:03;;;;;;;1.67;1.58;;;16.80;99.90;;;;;;5047291;28;20113;-77
2021/06/28 07:18:28;;;;;;;1.65;1.48;;;16.80;99.90;;;;;;5033885;28;20097;-77
2021/06/28 07:20:54;;;;;;;1.42;1.23;;;16.80;99.90;;;;;;5033486;28;20047;-77
2021/06/28 07:23:20;;;;;;;1.98;1.20;;;16.80;99.90;;;;;;5031435;28;20128;-78
2021/06/28 07:25:46;;;;;;;1.98;1.35;;;16.90;99.90;;;;;;5037747;28;20029;-78
2021/06/28 07:28:12;;;;;;;6.53;2.13;;;16.80;99.90;;;;;;5052397;28;20480;-78
2021/06/28 07:30:37;;;;;;;1.50;1.40;;;16.80;99.90;;;;;;5037471;28;20482;-78
2021/06/28 07:33:04;;;;;;;2.35;1.42;;;16.80;99.90;;;;;;5043985;28;20025;-78
2021/06/28 07:35:30;;;;;;;1.50;1.20;;;16.80;99.90;;;;;;5032413;28;20405;-78
2021/06/28 07:37:56;;;;;;;1.52;1.42;;;16.70;99.90;;;;;;5032967;28;20034;-78
2021/06/28 07:40:22;;;;;;;2.30;1.65;;;16.60;99.90;;;;;;5033177;28;20041;-78
2021/06/28 07:42:49;;;;;;;1.92;1.83;;;16.60;99.90;;;;;;5033420;28;20032;-78
2021/06/28 07:45:17;;;;;;;1.77;1.52;;;16.60;99.90;;;;;;5032659;28;20033;-78
2021/06/28 07:47:44;;;;;;;1.23;1.23;;;16.70;99.90;;;;;;5032996;28;20021;-78
2021/06/28 07:50:11;;;;;;;2.58;1.42;;;16.60;99.90;;;;;;5032946;28;20029;-78
2021/06/28 07:52:38;;;;;;;1.88;1.08;;;16.70;99.90;;;;;;5033024;28;20026;-78
2021/06/28 07:55:10;;;;;;;1.80;1.67;;;16.80;99.90;;;;;;5032924;28;20033;-78
2021/06/28 07:57:36;;;;;;;1.50;1.40;;;16.80;99.90;;;;;;5032316;28;20049;-78
2021/06/28 08:00:06;;;;;;;1.73;1.63;;;16.70;99.90;;;;;;5032453;28;20044;-78
2021/06/28 08:02:32;;;;;;;2.65;2.00;;;16.60;99.90;;;;;;5032941;28;20443;-77
2021/06/28 08:05:00;;;;;;;3.38;1.73;;;16.60;99.90;;;;;;5032575;28;20029;-78
2021/06/28 08:07:26;;;;;;;1.63;1.52;;;16.60;99.90;;;;;;5032511;28;20100;-78
2021/06/28 08:09:52;;;;;;;1.60;1.50;;;16.60;99.90;;;;;;5032649;28;20105;-78
2021/06/28 08:12:17;;;;;;;1.98;1.73;;;16.70;99.90;;;;;;5032724;28;20053;-78
2021/06/28 08:14:43;;;;;;;2.00;1.70;;;16.60;99.90;;;;;;5032178;28;20033;-78
2021/06/28 08:17:09;;;;;;;2.13;1.70;;;16.60;99.90;;;;;;5032636;28;20068;-78
2021/06/28 08:19:34;;;;;;;2.45;2.10;;;16.60;99.90;;;;;;5032375;28;20107;-78
2021/06/28 08:22:00;;;;;;;3.05;2.15;;;16.80;99.90;;;;;;5032421;28;20428;-77
2021/06/28 08:24:28;;;;;;;2.72;2.10;;;16.90;99.90;;;;;;5032648;28;20554;-77
2021/06/28 08:26:54;;;;;;;3.08;2.30;;;17.00;99.90;;;;;;5046171;28;20082;-78
2021/06/28 08:29:19;;;;;;;3.13;2.90;;;17.00;99.90;;;;;;5051978;28;20029;-78
2021/06/28 08:31:45;;;;;;;3.22;2.05;;;17.10;99.90;;;;;;5052421;28;20021;-78
2021/06/28 08:34:16;;;;;;;2.30;1.80;;;17.20;99.90;;;;;;5052282;28;20056;-78
2021/06/28 08:36:44;;;;;;;;;;;17.30;99.90;;;;;;5052724;28;20098;-77
2021/06/28 08:39:10;;;;;;;1.85;1.75;;;17.30;99.90;;;;;;5050906;28;19905;-78
2021/06/28 08:41:42;;;;;;;4.00;1.50;;;17.30;99.90;;;;;;5050869;28;20167;-78
2021/06/28 08:44:08;;;;;;;6.18;3.20;;;17.10;99.90;;;;;;5052215;28;20033;-78
2021/06/28 08:46:34;;;;;;;3.03;1.80;;;17.20;99.90;;;;;;5052070;28;20044;-78
2021/06/28 08:49:00;;;;;;;1.50;1.40;;;16.90;99.90;;;;;;5052253;28;20017;-78
2021/06/28 08:51:26;;;;;;;2.03;1.70;;;16.90;99.90;;;;;;5052241;28;20485;-78
2021/06/28 08:53:55;;;;;;;1.67;1.58;;;16.90;99.90;;;;;;5052150;28;20018;-78
2021/06/28 08:56:22;;;;;;;1.30;1.20;;;17.20;99.90;;;;;;5051876;28;20033;-78
2021/06/28 08:58:47;;;;;;;2.92;1.83;;;17.10;99.90;;;;;;5052092;28;20036;-78
2021/06/28 09:01:13;;;;;;;1.67;1.58;;;16.90;99.90;;;;;;5051888;28;20094;-78
2021/06/28 09:03:39;;;;;;;2.08;1.60;;;17.10;99.90;;;;;;5050824;28;20108;-78
2021/06/28 09:06:19;;;;;;;3.33;1.60;;;16.90;99.90;;;;;;5051906;28;20100;-78
2021/06/28 09:08:56;;;;;;;;;;;17.40;99.90;;;;;;5052437;28;20100;-78
2021/06/28 09:11:22;;;;;;;1.40;1.30;;;17.50;99.90;;;;;;5055491;28;20360;-78
2021/06/28 09:13:49;;;;;;;2.55;1.10;;;17.80;99.90;;;;;;5054628;28;20100;-78
2021/06/28 09:16:20;;;;;;;2.15;1.08;;;18.00;99.90;;;;;;5055655;28;20076;-78
2021/06/28 09:19:07;;;;;;;3.72;1.23;;;17.40;99.90;;;;;;5055555;28;20045;-78
2021/06/28 09:21:46;;;;;;;1.15;1.13;;;17.20;99.90;;;;;;5055702;28;20447;-78
2021/06/28 09:24:49;;;;;;;1.48;1.38;;;17.50;99.90;;;;;;5055634;28;20033;-78
2021/06/28 09:27:20;;;;;;;3.72;2.30;;;17.80;99.90;;;;;;5032813;28;20061;-78
2021/06/28 09:29:59;;;;;;;2.33;1.00;;;17.70;99.90;;;;;;5033491;28;20042;-78
2021/06/28 09:32:26;;;;;;;1.38;1.27;;;18.00;99.90;;;;;;5033521;28;20367;-78
2021/06/28 09:34:55;;;;;;;2.65;1.30;;;18.30;99.90;;;;;;5033362;28;20057;-78
2021/06/28 09:37:25;;;;;;;2.03;1.23;;;18.50;99.90;;;;;;5033148;28;20021;-78
2021/06/28 09:39:56;;;;;;;1.23;1.17;;;19.30;99.90;;;;;;5032993;28;20034;-78
2021/06/28 09:42:27;;;;;;;1.20;1.10;;;20.10;99.90;;;;;;5033215;28;20060;-78
2021/06/28 09:45:01;;;;;;;2.35;1.00;;;19.80;99.90;;;;;;5033104;28;20040;-78
2021/06/28 09:47:29;;;;;;;1.00;1.00;;;18.90;99.90;;;;;;5033166;28;20116;-78
2021/06/28 09:49:59;;;;;;;2.03;1.02;;;19.20;99.90;;;;;;5033164;28;20021;-78
2021/06/28 09:52:37;;;;;;;1.25;1.10;;;19.30;99.90;;;;;;5032911;28;20053;-78
2021/06/28 09:55:12;;;;;;;1.10;1.00;;;19.50;99.90;;;;;;5032674;28;20049;-78
2021/06/28 09:57:38;;;;;;;1.55;1.30;;;19.40;99.90;;;;;;5033123;28;20112;-78
2021/06/28 10:00:22;;;;;;;1.35;1.23;;;19.70;99.90;;;;;;5032975;28;20121;-78
2021/06/28 10:02:48;;;;;;;2.60;1.10;;;19.80;99.90;;;;;;5035031;28;20025;-78
2021/06/28 10:05:21;;;;;;;1.95;1.63;;;19.90;99.90;;;;;;5034708;28;20029;-78
2021/06/28 10:07:46;;;;;;;1.33;1.23;;;20.00;99.90;;;;;;5035087;28;20079;-78
2021/06/28 10:10:14;;;;;;;1.25;1.13;;;20.20;99.90;;;;;;5034472;28;20022;-78
2021/06/28 10:13:02;;;;;;;2.72;1.33;;;20.20;99.90;;;;;;5034879;28;20076;-78
2021/06/28 10:15:30;;;;;;;1.00;0.90;;;21.20;99.90;;;;;;5034519;28;20029;-78
2021/06/28 10:17:57;;;;;;;3.40;1.63;;;21.50;99.90;;;;;;5034689;28;20021;-78
2021/06/28 10:20:29;;;;;;;0.90;0.90;;;21.00;99.90;;;;;;5033895;28;20386;-78
2021/06/28 10:22:55;;;;;;;1.48;0.90;;;21.20;99.90;;;;;;5034687;28;20029;-78
2021/06/28 10:25:23;;;;;;;0.90;0.90;;;21.00;99.90;;;;;;5034527;28;20139;-78
2021/06/28 10:27:51;;;;;;;8.70;1.30;;;20.90;99.90;;;;;;5054540;28;20029;-78
2021/06/28 10:30:19;;;;;;;1.00;0.90;;;21.20;99.90;;;;;;5054243;28;20104;-78
2021/06/28 10:32:48;;;;;;;1.33;0.82;;;21.90;99.90;;;;;;5054557;28;20075;-78
2021/06/28 10:35:21;;;;;;;1.08;0.77;;;21.90;99.90;;;;;;5054424;28;20489;-78
2021/06/28 10:37:48;;;;;;;2.80;0.77;;;22.20;99.90;;;;;;5052635;28;20033;-78
2021/06/28 10:40:19;;;;;;;0.98;0.98;;;21.50;99.90;;;;;;5054062;28;20031;-78
2021/06/28 10:42:50;;;;;;;1.70;1.33;;;21.70;99.90;;;;;;5054292;28;20453;-78
2021/06/28 10:45:36;;;;;;;1.17;1.08;;;21.90;99.90;;;;;;5054045;28;20493;-78
2021/06/28 10:48:14;;;;;;;1.67;1.05;;;22.10;99.90;;;;;;5054167;28;20025;-78
2021/06/28 10:50:57;;;;;;;1.67;1.08;;;22.30;99.90;;;;;;5053862;28;20025;-78
2021/06/28 10:53:32;;;;;;;3.67;0.98;;;22.70;99.90;;;;;;5053605;28;20112;-78
2021/06/28 10:56:26;;;;;;;2.92;1.00;;;22.40;99.90;;;;;;5050676;28;20052;-79
2021/06/28 10:59:05;;;;;;;2.13;0.80;;;21.80;99.90;;;;;;5045168;28;20051;-78
2021/06/28 11:01:35;;;;;;;1.15;1.10;;;21.10;99.90;;;;;;5047177;28;20043;-79
2021/06/28 11:04:12;;;;;;;3.35;1.70;;;20.40;99.90;;;;;;5038792;28;20022;-78
2021/06/28 11:07:03;;;;;;;1.55;1.10;;;20.80;99.90;;;;;;5032943;28;20076;-78
2021/06/28 11:09:46;;;;;;;1.48;1.00;;;21.70;99.90;;;;;;5033561;28;20049;-78
2021/06/28 11:12:21;;;;;;;1.58;0.90;;;23.00;99.90;;;;;;5033527;28;20053;-78
2021/06/28 11:14:53;;;;;;;1.92;1.10;;;23.00;99.90;;;;;;5033648;28;20155;-78
2021/06/28 11:17:22;;;;;;;1.40;1.30;;;22.20;99.90;;;;;;5033440;28;20038;-78
2021/06/28 11:20:06;;;;;;;2.90;1.00;;;21.60;99.90;;;;;;5033457;28;20041;-78
2021/06/28 11:22:42;;;;;;;2.13;1.15;;;21.20;99.90;;;;;;5033235;28;20068;-78
2021/06/28 11:25:08;;;;;;;0.90;0.90;;;21.00;99.90;;;;;;5033475;28;20087;-78
2021/06/28 11:27:41;;;;;;;1.20;1.15;;;21.50;99.90;;;;;;5052600;28;20532;-78
2021/06/28 11:30:13;;;;;;;2.47;1.10;;;22.00;99.90;;;;;;5053320;28;20032;-78
2021/06/28 11:33:09;;;;;;;1.40;1.10;;;22.40;99.90;;;;;;5030139;28;20049;-78
2021/06/28 11:35:48;;;;;;;1.65;0.98;;;23.00;99.90;;;;;;5030586;28;20039;-78
2021/06/28 11:38:44;;;;;;;3.10;1.20;;;21.60;99.90;;;;;;5031000;28;20041;-78
2021/06/28 11:41:10;;;;;;;2.88;1.23;;;21.80;99.90;;;;;;5031092;28;20045;-78
2021/06/28 11:43:45;;;;;;;1.95;1.20;;;22.10;99.90;;;;;;5030876;28;20122;-78
2021/06/28 11:46:17;;;;;;;1.63;1.23;;;23.60;99.90;;;;;;5030865;28;20064;-78
2021/06/28 11:48:53;;;;;;;2.47;0.82;;;25.20;99.90;;;;;;5030951;28;20036;-78
2021/06/28 11:51:21;;;;;;;1.38;1.25;;;24.60;99.90;;;;;;5030514;28;20060;-78
2021/06/28 11:53:55;;;;;;;2.05;1.10;;;24.80;99.90;;;;;;5030696;28;20040;-78
2021/06/28 11:56:25;;;;;;;1.20;1.10;;;26.10;99.90;;;;;;5030762;28;20424;-78
2021/06/28 11:58:52;;;;;;;;;;;27.70;95.80;;;;;;5031269;28;20056;-78
2021/06/28 12:01:20;;;;;;;2.83;1.05;;;25.80;96.00;;;;;;5030800;28;19936;-78
2021/06/28 12:03:46;;;;;;;1.20;1.10;;;24.20;99.90;;;;;;5030621;28;20065;-78
2021/06/28 12:06:12;;;;;;;1.40;1.30;;;24.50;99.90;;;;;;5030267;28;20065;-78
2021/06/28 12:08:39;;;;;;;1.83;1.30;;;26.60;98.40;;;;;;5030417;28;20049;-78
2021/06/28 12:11:04;;;;;;;2.15;1.13;;;28.40;92.70;;;;;;5052504;28;20085;-78
2021/06/28 12:13:34;;;;;;;1.63;0.95;;;29.00;86.30;;;;;;5052575;28;20104;-78
2021/06/28 12:16:15;;;;;;;;;;;28.80;75.80;;;;;;5052949;28;20032;-78
2021/06/28 12:18:41;;;;;;;1.17;0.75;;;26.10;88.90;;;;;;5052306;28;20512;-78
2021/06/28 12:21:07;;;;;;;1.70;1.38;;;24.60;93.60;;;;;;5052322;28;20032;-78
2021/06/28 12:23:33;;;;;;;2.67;1.20;;;23.90;98.00;;;;;;5052246;28;20382;-78
2021/06/28 12:26:13;;;;;;;2.42;1.20;;;25.90;95.40;;;;;;5052288;28;20029;-78
2021/06/28 12:28:39;;;;;;;1.20;1.02;;;30.40;85.90;;;;;;5052247;28;20068;-78
2021/06/28 12:31:15;;;;;;;1.67;1.00;;;28.90;78.30;;;;;;5052513;28;20513;-78
2021/06/28 12:33:41;;;;;;;0.82;0.70;;;27.40;83.90;;;;;;5051896;28;20025;-78
2021/06/28 12:36:08;;;;;;;0.80;0.80;;;26.20;81.40;;;;;;5052275;28;20104;-78
2021/06/28 12:38:34;;;;;;;0.80;0.80;;;25.70;82.50;;;;;;5052261;28;20504;-78
2021/06/28 12:40:59;;;;;;;0.85;0.85;;;25.10;87.30;;;;;;5052265;28;20052;-78
2021/06/28 12:43:26;;;;;;;3.20;1.00;;;24.70;87.20;;;;;;5052963;28;20108;-78
2021/06/28 12:45:57;;;;;;;1.50;0.90;;;24.20;91.20;;;;;;5056286;28;20495;-78
2021/06/28 12:48:32;;;;;;;1.00;0.90;;;22.90;91.30;;;;;;5056154;28;20151;-78
2021/06/28 12:51:05;;;;;;;1.65;0.95;;;23.10;95.30;;;;;;5056193;28;20045;-78
2021/06/28 12:53:33;;;;;;;3.05;0.98;;;22.60;93.70;;;;;;5056062;28;20147;-78